sensor_id;sensor_type;location;lat;lon;timestamp;temperature;humidity
21676;DHT22;10999;51.332;9.458;2023-06-24T00:00:09;14.30;99.90
21676;DHT22;10999;51.332;9.458;2023-06-24T00:02:38;14.30;99.90
21676;DHT22;10999;51.332;9.458;2023-06-24T00:05:08;14.30;99.90
21676;DHT22;10999;51.332;9.458;2023-06-24T00:10:27;14.20;99.90
21676;DHT22;10999;51.332;9.458;2023-06-24T00:12:55;14.20;99.90
21676;DHT22;10999;51.332;9.458;2023-06-24T00:15:22;14.10;99.90
21676;DHT22;10999;51.332;9.458;2023-06-24T00:17:48;14.10;99.90
21676;DHT22;10999;51.332;9.458;2023-06-24T00:20:17;14.10;99.90
21676;DHT22;10999;51.332;9.458;2023-06-24T00:22:45;14.00;99.90
21676;DHT22;10999;51.332;9.458;2023-06-24T00:25:15;14.00;99.90
21676;DHT22;10999;51.332;9.458;2023-06-24T00:27:42;13.90;99.90
21676;DHT22;10999;51.332;9.458;2023-06-24T00:30:10;13.80;99.90
21676;DHT22;10999;51.332;9.458;2023-06-24T00:32:37;13.80;99.90
21676;DHT22;10999;51.332;9.458;2023-06-24T00:38:43;13.70;99.90
21676;DHT22;10999;51.332;9.458;2023-06-24T06:29:31;15.30;99.90
21676;DHT22;10999;51.332;9.458;2023-06-24T06:31:58;15.60;99.90
21676;DHT22;10999;51.332;9.458;2023-06-24T06:34:25;15.60;99.90
21676;DHT22;10999;51.332;9.458;2023-06-24T06:36:51;15.80;99.90
21676;DHT22;10999;51.332;9.458;2023-06-24T06:39:18;15.90;99.90
21676;DHT22;10999;51.332;9.458;2023-06-24T06:41:45;16.10;99.90
21676;DHT22;10999;51.332;9.458;2023-06-24T06:44:12;16.20;99.90
21676;DHT22;10999;51.332;9.458;2023-06-24T06:46:38;16.40;99.90
21676;DHT22;10999;51.332;9.458;2023-06-24T06:49:05;16.60;99.90
21676;DHT22;10999;51.332;9.458;2023-06-24T06:51:32;16.80;99.90
21676;DHT22;10999;51.332;9.458;2023-06-24T06:54:00;16.90;96.70
21676;DHT22;10999;51.332;9.458;2023-06-24T06:56:28;17.00;94.10
21676;DHT22;10999;51.332;9.458;2023-06-24T06:58:54;17.20;94.30
21676;DHT22;10999;51.332;9.458;2023-06-24T07:01:21;17.30;94.90
21676;DHT22;10999;51.332;9.458;2023-06-24T07:03:49;17.40;93.40
21676;DHT22;10999;51.332;9.458;2023-06-24T07:06:20;17.60;92.30
21676;DHT22;10999;51.332;9.458;2023-06-24T07:08:46;17.90;93.50
21676;DHT22;10999;51.332;9.458;2023-06-24T07:11:13;18.20;92.00
21676;DHT22;10999;51.332;9.458;2023-06-24T07:13:40;18.40;92.50
21676;DHT22;10999;51.332;9.458;2023-06-24T07:16:07;18.80;91.60
21676;DHT22;10999;51.332;9.458;2023-06-24T07:18:34;19.00;88.20
21676;DHT22;10999;51.332;9.458;2023-06-24T07:21:01;19.20;86.00
21676;DHT22;10999;51.332;9.458;2023-06-24T07:23:28;19.30;84.70
21676;DHT22;10999;51.332;9.458;2023-06-24T07:25:55;19.50;84.60
21676;DHT22;10999;51.332;9.458;2023-06-24T07:28:22;19.70;84.00
21676;DHT22;10999;51.332;9.458;2023-06-24T07:30:48;19.90;81.70
21676;DHT22;10999;51.332;9.458;2023-06-24T07:33:15;20.10;81.80
21676;DHT22;10999;51.332;9.458;2023-06-24T07:35:42;20.20;77.00
21676;DHT22;10999;51.332;9.458;2023-06-24T07:38:09;20.50;77.60
21676;DHT22;10999;51.332;9.458;2023-06-24T07:40:36;20.50;77.10
21676;DHT22;10999;51.332;9.458;2023-06-24T07:43:03;20.70;75.10
21676;DHT22;10999;51.332;9.458;2023-06-24T07:45:30;20.90;70.70
21676;DHT22;10999;51.332;9.458;2023-06-24T07:47:56;20.90;68.30
21676;DHT22;10999;51.332;9.458;2023-06-24T07:50:23;21.10;73.50
21676;DHT22;10999;51.332;9.458;2023-06-24T07:52:51;21.10;68.60
21676;DHT22;10999;51.332;9.458;2023-06-24T07:55:17;21.20;70.00
21676;DHT22;10999;51.332;9.458;2023-06-24T07:57:45;21.30;66.20
21676;DHT22;10999;51.332;9.458;2023-06-24T08:00:14;21.30;68.70
21676;DHT22;10999;51.332;9.458;2023-06-24T08:02:41;21.50;69.60
21676;DHT22;10999;51.332;9.458;2023-06-24T08:05:09;21.80;69.40
21676;DHT22;10999;51.332;9.458;2023-06-24T08:07:37;22.00;68.40
21676;DHT22;10999;51.332;9.458;2023-06-24T08:10:04;22.00;62.90
21676;DHT22;10999;51.332;9.458;2023-06-24T08:12:32;22.10;64.60
21676;DHT22;10999;51.332;9.458;2023-06-24T08:14:58;22.40;65.60
21676;DHT22;10999;51.332;9.458;2023-06-24T08:17:25;22.60;65.40
21676;DHT22;10999;51.332;9.458;2023-06-24T08:19:52;22.70;61.50
21676;DHT22;10999;51.332;9.458;2023-06-24T08:22:19;22.80;63.20
21676;DHT22;10999;51.332;9.458;2023-06-24T08:24:45;22.90;59.40
21676;DHT22;10999;51.332;9.458;2023-06-24T08:27:12;23.10;60.60
21676;DHT22;10999;51.332;9.458;2023-06-24T08:29:39;23.20;54.90
21676;DHT22;10999;51.332;9.458;2023-06-24T08:32:06;23.30;56.30
21676;DHT22;10999;51.332;9.458;2023-06-24T08:34:33;23.20;50.40
21676;DHT22;10999;51.332;9.458;2023-06-24T08:37:00;22.90;50.50
21676;DHT22;10999;51.332;9.458;2023-06-24T08:39:27;23.00;56.50
21676;DHT22;10999;51.332;9.458;2023-06-24T08:41:54;23.20;56.90
21676;DHT22;10999;51.332;9.458;2023-06-24T08:44:21;23.50;54.20
21676;DHT22;10999;51.332;9.458;2023-06-24T08:46:48;23.50;50.90
21676;DHT22;10999;51.332;9.458;2023-06-24T08:52:03;23.80;50.40
21676;DHT22;10999;51.332;9.458;2023-06-24T08:54:34;24.00;52.60
21676;DHT22;10999;51.332;9.458;2023-06-24T08:57:03;24.00;48.60
21676;DHT22;10999;51.332;9.458;2023-06-24T08:59:33;23.90;49.40
21676;DHT22;10999;51.332;9.458;2023-06-24T09:02:01;24.00;49.40
21676;DHT22;10999;51.332;9.458;2023-06-24T09:04:28;24.00;46.70
21676;DHT22;10999;51.332;9.458;2023-06-24T09:06:55;24.20;47.70
21676;DHT22;10999;51.332;9.458;2023-06-24T09:09:23;24.40;46.80
21676;DHT22;10999;51.332;9.458;2023-06-24T09:11:57;24.60;50.10
21676;DHT22;10999;51.332;9.458;2023-06-24T09:14:25;24.70;43.20
21676;DHT22;10999;51.332;9.458;2023-06-24T09:16:57;24.80;42.60
21676;DHT22;10999;51.332;9.458;2023-06-24T09:19:26;24.90;43.10
21676;DHT22;10999;51.332;9.458;2023-06-24T09:22:04;25.10;44.90
21676;DHT22;10999;51.332;9.458;2023-06-24T09:24:32;25.10;42.10
21676;DHT22;10999;51.332;9.458;2023-06-24T09:26:59;25.20;44.00
21676;DHT22;10999;51.332;9.458;2023-06-24T09:29:33;25.20;42.80
21676;DHT22;10999;51.332;9.458;2023-06-24T09:32:04;25.10;38.40
21676;DHT22;10999;51.332;9.458;2023-06-24T09:34:32;24.50;38.70
21676;DHT22;10999;51.332;9.458;2023-06-24T09:36:59;24.60;42.50
21676;DHT22;10999;51.332;9.458;2023-06-24T09:39:27;24.70;42.00
21676;DHT22;10999;51.332;9.458;2023-06-24T09:42:00;24.80;38.70
21676;DHT22;10999;51.332;9.458;2023-06-24T09:44:28;25.00;38.90
21676;DHT22;10999;51.332;9.458;2023-06-24T09:46:56;25.10;42.80
21676;DHT22;10999;51.332;9.458;2023-06-24T09:49:23;25.30;40.00
21676;DHT22;10999;51.332;9.458;2023-06-24T09:51:56;25.40;41.70
21676;DHT22;10999;51.332;9.458;2023-06-24T09:54:27;25.40;35.90
21676;DHT22;10999;51.332;9.458;2023-06-24T09:57:02;25.10;34.30
21676;DHT22;10999;51.332;9.458;2023-06-24T09:59:30;25.20;38.20
21676;DHT22;10999;51.332;9.458;2023-06-24T10:01:57;25.60;41.40
21676;DHT22;10999;51.332;9.458;2023-06-24T10:04:26;25.90;39.10
21676;DHT22;10999;51.332;9.458;2023-06-24T10:06:54;25.80;32.70
21676;DHT22;10999;51.332;9.458;2023-06-24T10:09:21;25.70;35.40
21676;DHT22;10999;51.332;9.458;2023-06-24T10:11:48;25.90;40.40
21676;DHT22;10999;51.332;9.458;2023-06-24T10:14:15;26.20;39.50
21676;DHT22;10999;51.332;9.458;2023-06-24T10:16:42;26.40;35.80
21676;DHT22;10999;51.332;9.458;2023-06-24T10:19:10;26.40;35.20
21676;DHT22;10999;51.332;9.458;2023-06-24T10:21:59;25.80;34.70
21676;DHT22;10999;51.332;9.458;2023-06-24T10:24:33;25.40;37.70
21676;DHT22;10999;51.332;9.458;2023-06-24T10:27:06;24.90;36.30
21676;DHT22;10999;51.332;9.458;2023-06-24T10:29:36;24.60;38.20
21676;DHT22;10999;51.332;9.458;2023-06-24T10:32:05;24.40;40.50
21676;DHT22;10999;51.332;9.458;2023-06-24T10:34:42;24.20;42.10
21676;DHT22;10999;51.332;9.458;2023-06-24T10:39:55;24.20;42.20
21676;DHT22;10999;51.332;9.458;2023-06-24T10:42:39;24.60;44.60
21676;DHT22;10999;51.332;9.458;2023-06-24T10:47:46;25.60;38.70
21676;DHT22;10999;51.332;9.458;2023-06-24T10:50:15;25.80;35.60
21676;DHT22;10999;51.332;9.458;2023-06-24T10:52:47;25.60;35.10
21676;DHT22;10999;51.332;9.458;2023-06-24T10:55:18;25.40;35.80
21676;DHT22;10999;51.332;9.458;2023-06-24T10:57:45;25.40;38.90
21676;DHT22;10999;51.332;9.458;2023-06-24T11:00:13;25.20;32.50
21676;DHT22;10999;51.332;9.458;2023-06-24T11:02:41;25.00;36.20
21676;DHT22;10999;51.332;9.458;2023-06-24T11:05:08;24.70;34.90
21676;DHT22;10999;51.332;9.458;2023-06-24T11:07:38;24.60;37.80
21676;DHT22;10999;51.332;9.458;2023-06-24T11:10:07;24.80;34.40
21676;DHT22;10999;51.332;9.458;2023-06-24T11:12:40;25.10;33.60
21676;DHT22;10999;51.332;9.458;2023-06-24T11:15:11;25.40;31.60
21676;DHT22;10999;51.332;9.458;2023-06-24T11:17:38;25.50;33.60
21676;DHT22;10999;51.332;9.458;2023-06-24T11:20:11;25.80;34.10
21676;DHT22;10999;51.332;9.458;2023-06-24T11:22:39;26.10;37.40
21676;DHT22;10999;51.332;9.458;2023-06-24T11:25:20;26.20;30.40
21676;DHT22;10999;51.332;9.458;2023-06-24T11:27:51;26.20;30.30
21676;DHT22;10999;51.332;9.458;2023-06-24T11:30:21;26.10;34.00
21676;DHT22;10999;51.332;9.458;2023-06-24T11:32:48;25.80;27.00
21676;DHT22;10999;51.332;9.458;2023-06-24T11:35:17;25.70;34.30
21676;DHT22;10999;51.332;9.458;2023-06-24T11:37:46;25.70;32.10
21676;DHT22;10999;51.332;9.458;2023-06-24T11:40:17;25.50;34.80
21676;DHT22;10999;51.332;9.458;2023-06-24T11:42:46;25.40;32.20
21676;DHT22;10999;51.332;9.458;2023-06-24T11:45:14;25.50;32.40
21676;DHT22;10999;51.332;9.458;2023-06-24T11:47:45;25.60;32.10
21676;DHT22;10999;51.332;9.458;2023-06-24T11:50:12;25.60;30.30
21676;DHT22;10999;51.332;9.458;2023-06-24T11:52:47;25.60;30.20
21676;DHT22;10999;51.332;9.458;2023-06-24T11:55:21;25.80;32.10
21676;DHT22;10999;51.332;9.458;2023-06-24T11:58:04;25.90;30.70
21676;DHT22;10999;51.332;9.458;2023-06-24T12:00:37;25.70;31.90
21676;DHT22;10999;51.332;9.458;2023-06-24T12:03:06;25.80;34.00
21676;DHT22;10999;51.332;9.458;2023-06-24T12:05:37;26.10;31.20
21676;DHT22;10999;51.332;9.458;2023-06-24T12:08:09;26.30;34.40
21676;DHT22;10999;51.332;9.458;2023-06-24T12:10:38;26.50;31.80
21676;DHT22;10999;51.332;9.458;2023-06-24T12:13:06;26.70;29.50
21676;DHT22;10999;51.332;9.458;2023-06-24T12:15:35;26.60;26.30
21676;DHT22;10999;51.332;9.458;2023-06-24T12:18:02;26.20;25.80
21676;DHT22;10999;51.332;9.458;2023-06-24T12:20:30;25.90;26.60
21676;DHT22;10999;51.332;9.458;2023-06-24T12:23:02;25.50;27.40
21676;DHT22;10999;51.332;9.458;2023-06-24T12:25:30;25.10;31.30
21676;DHT22;10999;51.332;9.458;2023-06-24T12:27:57;25.00;32.80
21676;DHT22;10999;51.332;9.458;2023-06-24T12:30:26;25.30;28.50
21676;DHT22;10999;51.332;9.458;2023-06-24T12:32:52;25.20;27.70
21676;DHT22;10999;51.332;9.458;2023-06-24T12:35:21;25.40;32.90
21676;DHT22;10999;51.332;9.458;2023-06-24T12:37:48;25.40;29.10
21676;DHT22;10999;51.332;9.458;2023-06-24T12:40:15;25.30;31.30
21676;DHT22;10999;51.332;9.458;2023-06-24T12:42:42;25.20;32.70
21676;DHT22;10999;51.332;9.458;2023-06-24T12:45:09;25.20;35.60
21676;DHT22;10999;51.332;9.458;2023-06-24T12:47:36;25.20;35.30
21676;DHT22;10999;51.332;9.458;2023-06-24T12:50:03;25.20;33.30
21676;DHT22;10999;51.332;9.458;2023-06-24T12:52:35;25.30;33.50
21676;DHT22;10999;51.332;9.458;2023-06-24T12:55:02;25.20;32.10
21676;DHT22;10999;51.332;9.458;2023-06-24T12:57:30;25.10;30.70
21676;DHT22;10999;51.332;9.458;2023-06-24T12:59:57;25.10;31.50
21676;DHT22;10999;51.332;9.458;2023-06-24T13:02:24;25.10;34.40
21676;DHT22;10999;51.332;9.458;2023-06-24T13:04:51;25.20;36.00
21676;DHT22;10999;51.332;9.458;2023-06-24T13:07:18;25.30;34.00
21676;DHT22;10999;51.332;9.458;2023-06-24T13:09:45;25.40;33.50
21676;DHT22;10999;51.332;9.458;2023-06-24T13:12:12;25.70;31.40
21676;DHT22;10999;51.332;9.458;2023-06-24T13:14:38;25.90;30.30
21676;DHT22;10999;51.332;9.458;2023-06-24T13:17:05;26.20;29.00
21676;DHT22;10999;51.332;9.458;2023-06-24T13:19:32;26.40;32.20
21676;DHT22;10999;51.332;9.458;2023-06-24T13:21:59;26.60;30.40
21676;DHT22;10999;51.332;9.458;2023-06-24T13:24:26;26.50;28.20
21676;DHT22;10999;51.332;9.458;2023-06-24T13:26:53;26.40;29.50
21676;DHT22;10999;51.332;9.458;2023-06-24T13:29:20;26.20;30.80
21676;DHT22;10999;51.332;9.458;2023-06-24T13:31:47;26.30;31.60
21676;DHT22;10999;51.332;9.458;2023-06-24T13:34:14;26.40;28.70
21676;DHT22;10999;51.332;9.458;2023-06-24T13:36:41;26.50;29.20
21676;DHT22;10999;51.332;9.458;2023-06-24T13:39:08;26.70;29.50
21676;DHT22;10999;51.332;9.458;2023-06-24T13:41:38;26.60;27.60
21676;DHT22;10999;51.332;9.458;2023-06-24T13:44:05;26.40;27.50
21676;DHT22;10999;51.332;9.458;2023-06-24T13:46:32;26.30;31.80
21676;DHT22;10999;51.332;9.458;2023-06-24T13:49:02;26.20;29.20
21676;DHT22;10999;51.332;9.458;2023-06-24T13:51:32;26.00;33.80
21676;DHT22;10999;51.332;9.458;2023-06-24T13:53:59;25.80;31.50
21676;DHT22;10999;51.332;9.458;2023-06-24T13:56:26;25.70;32.50
21676;DHT22;10999;51.332;9.458;2023-06-24T13:58:53;25.60;30.30
21676;DHT22;10999;51.332;9.458;2023-06-24T14:01:21;25.50;28.40
21676;DHT22;10999;51.332;9.458;2023-06-24T14:03:49;25.50;28.70
21676;DHT22;10999;51.332;9.458;2023-06-24T14:06:20;25.70;31.70
21676;DHT22;10999;51.332;9.458;2023-06-24T14:08:47;25.80;28.70
21676;DHT22;10999;51.332;9.458;2023-06-24T14:11:14;25.80;32.70
21676;DHT22;10999;51.332;9.458;2023-06-24T14:13:42;25.70;28.20
21676;DHT22;10999;51.332;9.458;2023-06-24T14:16:09;25.90;27.80
21676;DHT22;10999;51.332;9.458;2023-06-24T14:18:37;26.00;28.30
21676;DHT22;10999;51.332;9.458;2023-06-24T14:21:06;26.00;29.50
21676;DHT22;10999;51.332;9.458;2023-06-24T14:23:33;26.10;29.50
21676;DHT22;10999;51.332;9.458;2023-06-24T14:26:01;26.20;27.40
21676;DHT22;10999;51.332;9.458;2023-06-24T14:28:30;26.30;29.00
21676;DHT22;10999;51.332;9.458;2023-06-24T14:30:57;26.60;33.00
21676;DHT22;10999;51.332;9.458;2023-06-24T14:33:24;26.60;27.00
21676;DHT22;10999;51.332;9.458;2023-06-24T14:35:54;26.40;29.20
21676;DHT22;10999;51.332;9.458;2023-06-24T14:38:21;26.20;28.80
21676;DHT22;10999;51.332;9.458;2023-06-24T14:40:48;26.20;27.90
21676;DHT22;10999;51.332;9.458;2023-06-24T14:43:16;26.10;29.60
21676;DHT22;10999;51.332;9.458;2023-06-24T14:45:45;26.00;31.20
21676;DHT22;10999;51.332;9.458;2023-06-24T14:48:12;26.10;27.70
21676;DHT22;10999;51.332;9.458;2023-06-24T14:50:39;26.30;28.50
21676;DHT22;10999;51.332;9.458;2023-06-24T14:53:06;26.60;30.70
21676;DHT22;10999;51.332;9.458;2023-06-24T14:55:33;26.90;27.80
21676;DHT22;10999;51.332;9.458;2023-06-24T14:57:59;26.90;28.00
21676;DHT22;10999;51.332;9.458;2023-06-24T15:00:26;26.80;25.10
21676;DHT22;10999;51.332;9.458;2023-06-24T15:02:53;26.90;25.70
21676;DHT22;10999;51.332;9.458;2023-06-24T15:05:20;26.90;24.90
21676;DHT22;10999;51.332;9.458;2023-06-24T15:07:47;27.10;27.50
21676;DHT22;10999;51.332;9.458;2023-06-24T15:10:14;27.20;26.30
21676;DHT22;10999;51.332;9.458;2023-06-24T15:12:41;27.10;24.60
21676;DHT22;10999;51.332;9.458;2023-06-24T15:15:08;26.80;27.00
21676;DHT22;10999;51.332;9.458;2023-06-24T15:17:35;26.60;29.00
21676;DHT22;10999;51.332;9.458;2023-06-24T15:20:07;26.50;28.70
21676;DHT22;10999;51.332;9.458;2023-06-24T15:22:35;26.50;26.40
21676;DHT22;10999;51.332;9.458;2023-06-24T15:25:03;26.40;28.70
21676;DHT22;10999;51.332;9.458;2023-06-24T15:27:29;26.50;28.50
21676;DHT22;10999;51.332;9.458;2023-06-24T15:29:56;26.60;27.00
21676;DHT22;10999;51.332;9.458;2023-06-24T15:32:23;26.60;29.20
21676;DHT22;10999;51.332;9.458;2023-06-24T15:34:50;26.70;28.90
21676;DHT22;10999;51.332;9.458;2023-06-24T15:37:17;26.90;26.70
21676;DHT22;10999;51.332;9.458;2023-06-24T15:39:44;26.90;23.60
21676;DHT22;10999;51.332;9.458;2023-06-24T15:42:11;27.10;23.70
21676;DHT22;10999;51.332;9.458;2023-06-24T15:44:38;27.10;22.00
21676;DHT22;10999;51.332;9.458;2023-06-24T15:47:05;27.20;23.50
21676;DHT22;10999;51.332;9.458;2023-06-24T15:49:32;27.30;24.40
21676;DHT22;10999;51.332;9.458;2023-06-24T15:51:59;27.30;25.10
21676;DHT22;10999;51.332;9.458;2023-06-24T15:54:26;27.40;25.30
21676;DHT22;10999;51.332;9.458;2023-06-24T15:56:52;27.50;25.90
21676;DHT22;10999;51.332;9.458;2023-06-24T15:59:19;27.40;23.10
21676;DHT22;10999;51.332;9.458;2023-06-24T16:01:46;27.40;22.40
21676;DHT22;10999;51.332;9.458;2023-06-24T16:04:13;27.50;22.90
21676;DHT22;10999;51.332;9.458;2023-06-24T16:06:42;27.50;23.10
21676;DHT22;10999;51.332;9.458;2023-06-24T16:09:14;27.50;22.80
21676;DHT22;10999;51.332;9.458;2023-06-24T16:11:41;27.60;24.90
21676;DHT22;10999;51.332;9.458;2023-06-24T16:14:08;27.30;22.20
21676;DHT22;10999;51.332;9.458;2023-06-24T16:16:35;27.20;23.40
21676;DHT22;10999;51.332;9.458;2023-06-24T16:19:01;26.90;22.10
21676;DHT22;10999;51.332;9.458;2023-06-24T16:21:29;26.70;24.10
21676;DHT22;10999;51.332;9.458;2023-06-24T16:23:55;26.40;24.10
21676;DHT22;10999;51.332;9.458;2023-06-24T16:26:22;26.30;25.90
21676;DHT22;10999;51.332;9.458;2023-06-24T16:28:49;26.20;24.50
21676;DHT22;10999;51.332;9.458;2023-06-24T16:31:17;26.30;25.30
21676;DHT22;10999;51.332;9.458;2023-06-24T16:33:44;26.50;24.80
21676;DHT22;10999;51.332;9.458;2023-06-24T16:36:11;26.60;25.70
21676;DHT22;10999;51.332;9.458;2023-06-24T16:38:37;26.70;24.80
21676;DHT22;10999;51.332;9.458;2023-06-24T16:41:04;26.80;24.40
21676;DHT22;10999;51.332;9.458;2023-06-24T16:43:31;26.80;23.80
21676;DHT22;10999;51.332;9.458;2023-06-24T16:45:58;26.70;23.30
21676;DHT22;10999;51.332;9.458;2023-06-24T16:48:24;26.50;21.80
21676;DHT22;10999;51.332;9.458;2023-06-24T16:50:51;26.50;22.20
21676;DHT22;10999;51.332;9.458;2023-06-24T16:53:18;26.40;24.50
21676;DHT22;10999;51.332;9.458;2023-06-24T16:55:45;26.20;25.20
21676;DHT22;10999;51.332;9.458;2023-06-24T16:58:12;26.20;26.80
21676;DHT22;10999;51.332;9.458;2023-06-24T17:00:39;26.30;26.20
21676;DHT22;10999;51.332;9.458;2023-06-24T17:03:06;26.20;25.90
21676;DHT22;10999;51.332;9.458;2023-06-24T17:05:33;26.30;24.00
21676;DHT22;10999;51.332;9.458;2023-06-24T17:08:05;26.30;26.00
21676;DHT22;10999;51.332;9.458;2023-06-24T17:10:32;26.30;26.40
21676;DHT22;10999;51.332;9.458;2023-06-24T17:13:00;26.20;24.10
21676;DHT22;10999;51.332;9.458;2023-06-24T17:15:28;26.10;23.10
21676;DHT22;10999;51.332;9.458;2023-06-24T17:17:55;26.10;26.40
21676;DHT22;10999;51.332;9.458;2023-06-24T17:20:22;26.10;26.70
21676;DHT22;10999;51.332;9.458;2023-06-24T17:22:49;26.00;25.70
21676;DHT22;10999;51.332;9.458;2023-06-24T17:25:16;25.90;26.30
21676;DHT22;10999;51.332;9.458;2023-06-24T17:27:43;25.80;26.10
21676;DHT22;10999;51.332;9.458;2023-06-24T17:30:10;25.70;26.30
21676;DHT22;10999;51.332;9.458;2023-06-24T17:32:37;25.60;27.40
21676;DHT22;10999;51.332;9.458;2023-06-24T17:35:04;25.50;28.80
21676;DHT22;10999;51.332;9.458;2023-06-24T17:37:31;25.40;28.90
21676;DHT22;10999;51.332;9.458;2023-06-24T17:39:58;25.30;30.60
21676;DHT22;10999;51.332;9.458;2023-06-24T17:42:24;25.20;29.40
21676;DHT22;10999;51.332;9.458;2023-06-24T17:44:51;25.10;29.30
21676;DHT22;10999;51.332;9.458;2023-06-24T17:47:18;24.90;29.60
21676;DHT22;10999;51.332;9.458;2023-06-24T17:49:45;24.80;29.40
21676;DHT22;10999;51.332;9.458;2023-06-24T17:52:12;24.70;30.00
21676;DHT22;10999;51.332;9.458;2023-06-24T17:54:39;24.60;30.60
21676;DHT22;10999;51.332;9.458;2023-06-24T17:57:05;24.50;31.20
21676;DHT22;10999;51.332;9.458;2023-06-24T17:59:32;24.50;31.90
21676;DHT22;10999;51.332;9.458;2023-06-24T18:01:59;24.40;32.50
21676;DHT22;10999;51.332;9.458;2023-06-24T18:04:26;24.40;33.50
21676;DHT22;10999;51.332;9.458;2023-06-24T18:06:53;24.40;34.90
21676;DHT22;10999;51.332;9.458;2023-06-24T18:09:20;24.30;35.70
21676;DHT22;10999;51.332;9.458;2023-06-24T18:11:46;24.30;36.60
21676;DHT22;10999;51.332;9.458;2023-06-24T18:14:14;24.20;36.50
21676;DHT22;10999;51.332;9.458;2023-06-24T18:16:47;24.20;35.30
21676;DHT22;10999;51.332;9.458;2023-06-24T18:19:15;24.20;35.80
21676;DHT22;10999;51.332;9.458;2023-06-24T18:21:42;24.10;36.40
21676;DHT22;10999;51.332;9.458;2023-06-24T18:24:09;24.20;37.30
21676;DHT22;10999;51.332;9.458;2023-06-24T18:26:37;24.10;38.40
21676;DHT22;10999;51.332;9.458;2023-06-24T18:29:06;24.10;37.30
21676;DHT22;10999;51.332;9.458;2023-06-24T18:31:33;24.00;38.40
21676;DHT22;10999;51.332;9.458;2023-06-24T18:34:00;24.00;38.70
21676;DHT22;10999;51.332;9.458;2023-06-24T18:36:27;23.90;38.20
21676;DHT22;10999;51.332;9.458;2023-06-24T18:38:54;23.80;39.20
21676;DHT22;10999;51.332;9.458;2023-06-24T18:41:21;23.70;39.50
21676;DHT22;10999;51.332;9.458;2023-06-24T18:43:47;23.70;40.30
21676;DHT22;10999;51.332;9.458;2023-06-24T18:46:14;23.60;42.20
21676;DHT22;10999;51.332;9.458;2023-06-24T18:48:45;23.50;44.60
21676;DHT22;10999;51.332;9.458;2023-06-24T18:51:13;23.40;46.70
21676;DHT22;10999;51.332;9.458;2023-06-24T18:53:43;23.30;50.30
21676;DHT22;10999;51.332;9.458;2023-06-24T18:56:10;23.20;51.80
21676;DHT22;10999;51.332;9.458;2023-06-24T18:58:37;23.10;52.90
21676;DHT22;10999;51.332;9.458;2023-06-24T19:01:04;23.10;52.70
21676;DHT22;10999;51.332;9.458;2023-06-24T19:03:31;22.90;54.30
21676;DHT22;10999;51.332;9.458;2023-06-24T19:05:58;22.90;52.70
21676;DHT22;10999;51.332;9.458;2023-06-24T19:08:25;22.80;52.10
21676;DHT22;10999;51.332;9.458;2023-06-24T19:10:56;22.80;51.30
21676;DHT22;10999;51.332;9.458;2023-06-24T19:13:23;22.70;50.90
21676;DHT22;10999;51.332;9.458;2023-06-24T19:15:50;22.60;51.40
21676;DHT22;10999;51.332;9.458;2023-06-24T19:18:17;22.60;52.10
21676;DHT22;10999;51.332;9.458;2023-06-24T19:20:45;22.50;53.20
21676;DHT22;10999;51.332;9.458;2023-06-24T19:23:12;22.40;54.30
21676;DHT22;10999;51.332;9.458;2023-06-24T19:25:39;22.30;56.60
21676;DHT22;10999;51.332;9.458;2023-06-24T19:28:06;22.20;60.40
21676;DHT22;10999;51.332;9.458;2023-06-24T19:30:33;22.00;61.20
21676;DHT22;10999;51.332;9.458;2023-06-24T19:33:00;21.90;61.60
21676;DHT22;10999;51.332;9.458;2023-06-24T19:35:27;21.80;62.80
21676;DHT22;10999;51.332;9.458;2023-06-24T19:37:54;21.80;64.50
21676;DHT22;10999;51.332;9.458;2023-06-24T19:40:21;21.60;64.60
21676;DHT22;10999;51.332;9.458;2023-06-24T19:42:49;21.60;65.80
21676;DHT22;10999;51.332;9.458;2023-06-24T19:45:16;21.40;66.10
21676;DHT22;10999;51.332;9.458;2023-06-24T19:47:43;21.40;66.60
21676;DHT22;10999;51.332;9.458;2023-06-24T19:50:10;21.30;66.70
21676;DHT22;10999;51.332;9.458;2023-06-24T19:52:41;21.20;67.50
21676;DHT22;10999;51.332;9.458;2023-06-24T19:55:09;21.10;68.00
21676;DHT22;10999;51.332;9.458;2023-06-24T19:57:36;21.10;69.20
21676;DHT22;10999;51.332;9.458;2023-06-24T20:00:06;21.00;69.40
21676;DHT22;10999;51.332;9.458;2023-06-24T20:02:33;20.90;69.80
21676;DHT22;10999;51.332;9.458;2023-06-24T20:05:00;20.80;70.10
21676;DHT22;10999;51.332;9.458;2023-06-24T20:07:27;20.80;71.70
21676;DHT22;10999;51.332;9.458;2023-06-24T20:09:54;20.70;72.00
21676;DHT22;10999;51.332;9.458;2023-06-24T20:12:20;20.60;71.80
21676;DHT22;10999;51.332;9.458;2023-06-24T20:14:47;20.50;72.40
21676;DHT22;10999;51.332;9.458;2023-06-24T20:17:14;20.40;72.70
21676;DHT22;10999;51.332;9.458;2023-06-24T20:19:41;20.40;72.60
21676;DHT22;10999;51.332;9.458;2023-06-24T20:22:08;20.30;73.10
21676;DHT22;10999;51.332;9.458;2023-06-24T20:24:35;20.20;73.40
21676;DHT22;10999;51.332;9.458;2023-06-24T20:27:01;20.20;73.80
21676;DHT22;10999;51.332;9.458;2023-06-24T20:29:29;20.10;73.80
21676;DHT22;10999;51.332;9.458;2023-06-24T20:31:56;20.00;74.50
21676;DHT22;10999;51.332;9.458;2023-06-24T20:34:23;20.00;74.90
21676;DHT22;10999;51.332;9.458;2023-06-24T20:36:50;19.80;75.30
21676;DHT22;10999;51.332;9.458;2023-06-24T20:39:17;19.80;75.70
21676;DHT22;10999;51.332;9.458;2023-06-24T20:41:43;19.70;76.00
21676;DHT22;10999;51.332;9.458;2023-06-24T20:44:10;19.70;76.20
21676;DHT22;10999;51.332;9.458;2023-06-24T20:46:42;19.70;76.80
21676;DHT22;10999;51.332;9.458;2023-06-24T20:49:09;19.60;77.10
21676;DHT22;10999;51.332;9.458;2023-06-24T20:51:36;19.50;77.80
21676;DHT22;10999;51.332;9.458;2023-06-24T20:54:03;19.50;78.40
21676;DHT22;10999;51.332;9.458;2023-06-24T20:56:29;19.40;78.80
21676;DHT22;10999;51.332;9.458;2023-06-24T20:58:56;19.40;80.00
21676;DHT22;10999;51.332;9.458;2023-06-24T21:01:23;19.30;80.50
21676;DHT22;10999;51.332;9.458;2023-06-24T21:03:50;19.20;80.60
21676;DHT22;10999;51.332;9.458;2023-06-24T21:06:17;19.20;80.90
21676;DHT22;10999;51.332;9.458;2023-06-24T21:08:43;19.20;80.90
21676;DHT22;10999;51.332;9.458;2023-06-24T21:11:10;19.10;81.20
21676;DHT22;10999;51.332;9.458;2023-06-24T21:13:37;19.10;81.60
21676;DHT22;10999;51.332;9.458;2023-06-24T21:16:05;19.00;82.00
21676;DHT22;10999;51.332;9.458;2023-06-24T21:18:31;19.00;82.60
21676;DHT22;10999;51.332;9.458;2023-06-24T21:20:58;19.00;82.90
21676;DHT22;10999;51.332;9.458;2023-06-24T21:23:25;18.90;83.10
21676;DHT22;10999;51.332;9.458;2023-06-24T21:25:52;18.80;83.30
21676;DHT22;10999;51.332;9.458;2023-06-24T21:28:22;18.80;83.30
21676;DHT22;10999;51.332;9.458;2023-06-24T21:30:49;18.80;83.40
21676;DHT22;10999;51.332;9.458;2023-06-24T21:33:17;18.70;83.80
21676;DHT22;10999;51.332;9.458;2023-06-24T21:35:44;18.70;84.90